createdAt,value
2018-01-04T00:09:27.000Z,52.1
2018-01-04T00:19:27.000Z,45
2018-01-04T00:29:27.000Z,44.6
2018-01-04T00:39:31.000Z,44.6
2018-01-04T00:49:27.000Z,44.7
2018-01-04T00:59:27.000Z,45.1
2018-01-04T01:09:27.000Z,45.1
2018-01-04T01:19:27.000Z,45.3
2018-01-04T01:29:27.000Z,44.9
2018-01-04T01:39:27.000Z,44.7
2018-01-04T01:49:28.000Z,45
2018-01-04T01:59:28.000Z,44.5
2018-01-04T02:09:28.000Z,44.3
2018-01-04T02:19:28.000Z,44.3
2018-01-04T02:29:28.000Z,44.1
2018-01-04T02:39:28.000Z,44.4
2018-01-04T02:49:28.000Z,44.6
2018-01-04T02:59:28.000Z,44.4
2018-01-04T03:09:28.000Z,44.4
2018-01-04T03:19:28.000Z,44.6
2018-01-04T03:29:28.000Z,45.6
2018-01-04T03:39:28.000Z,45
2018-01-04T03:49:28.000Z,45
2018-01-04T03:59:28.000Z,44.6
2018-01-04T04:09:28.000Z,44.2
2018-01-04T04:19:28.000Z,44.2
2018-01-04T04:29:28.000Z,44.5
2018-01-04T04:39:28.000Z,44.6
2018-01-04T04:49:28.000Z,44.4
2018-01-04T04:59:28.000Z,43.7
2018-01-04T05:09:28.000Z,44.4
2018-01-04T05:19:28.000Z,44.3
2018-01-04T05:29:28.000Z,43.7
2018-01-04T05:39:28.000Z,43.4
2018-01-04T05:49:28.000Z,43.5
2018-01-04T05:59:28.000Z,43.8
2018-01-04T06:09:28.000Z,44.3
2018-01-04T06:19:28.000Z,44
2018-01-04T06:29:29.000Z,44
2018-01-04T06:39:28.000Z,44.1
2018-01-04T06:49:28.000Z,44.3
2018-01-04T06:59:28.000Z,44.8
2018-01-04T07:09:28.000Z,45
2018-01-04T07:19:28.000Z,45.6
2018-01-04T07:29:28.000Z,45.4
2018-01-04T07:39:28.000Z,45.7
2018-01-04T07:49:28.000Z,45.6
2018-01-04T07:59:28.000Z,45.6
2018-01-04T08:09:28.000Z,45.2
2018-01-04T08:19:28.000Z,45.6
2018-01-04T08:29:28.000Z,45.4
2018-01-04T08:39:28.000Z,45.4
2018-01-04T08:49:29.000Z,45.1
2018-01-04T08:59:30.000Z,45
2018-01-04T09:09:29.000Z,45.3
2018-01-04T09:19:29.000Z,45.4
2018-01-04T09:29:29.000Z,45.5
2018-01-04T09:39:29.000Z,45.8
2018-01-04T09:49:29.000Z,46.9
2018-01-04T09:59:29.000Z,45.1
2018-01-04T10:09:29.000Z,45.2
2018-01-04T10:19:29.000Z,45.3
2018-01-04T10:29:31.000Z,45.7
2018-01-04T10:39:29.000Z,46
2018-01-04T10:49:29.000Z,46
2018-01-04T10:59:29.000Z,46
2018-01-04T11:09:29.000Z,45.9
2018-01-04T11:19:29.000Z,46.2
2018-01-04T11:29:29.000Z,46.1
2018-01-04T11:39:31.000Z,46
2018-01-04T11:49:29.000Z,46.1
2018-01-04T11:59:29.000Z,46.3
2018-01-04T12:09:29.000Z,46.1
2018-01-04T12:19:29.000Z,46
2018-01-04T12:29:29.000Z,46.8
2018-01-04T12:39:29.000Z,47.3
2018-01-04T12:49:29.000Z,46.9
2018-01-04T12:59:29.000Z,46.7
2018-01-04T13:09:29.000Z,50.4
2018-01-04T13:19:29.000Z,53.1
2018-01-04T13:29:29.000Z,51.2
2018-01-04T13:39:29.000Z,51.3
2018-01-04T13:49:29.000Z,51.3
2018-01-04T13:59:29.000Z,51.3
2018-01-04T14:09:29.000Z,51.7
2018-01-04T14:19:29.000Z,53.7
2018-01-04T14:29:29.000Z,51.4
2018-01-04T14:39:29.000Z,49.7
2018-01-04T14:49:29.000Z,50.3
2018-01-04T14:59:29.000Z,50.5
2018-01-04T15:09:30.000Z,50.8
2018-01-04T15:19:29.000Z,50.7
2018-01-04T15:29:29.000Z,50.6
2018-01-04T15:39:29.000Z,50.5
2018-01-04T15:49:30.000Z,50.6
2018-01-04T15:59:30.000Z,51.4
2018-01-04T16:09:32.000Z,51.5
2018-01-04T16:19:30.000Z,52
2018-01-04T16:29:30.000Z,52.5
2018-01-04T16:39:30.000Z,51.8
2018-01-04T16:49:30.000Z,51
2018-01-04T16:59:30.000Z,51.8
2018-01-04T17:09:30.000Z,52.1
2018-01-04T17:19:30.000Z,52.6
2018-01-04T17:29:30.000Z,56.2
2018-01-04T17:39:30.000Z,58.9
2018-01-04T17:49:31.000Z,60.7
2018-01-04T17:59:30.000Z,58.5
2018-01-04T18:09:30.000Z,62.4
2018-01-04T18:19:30.000Z,62.8
2018-01-04T18:29:30.000Z,63.2
2018-01-04T18:39:30.000Z,63.5
2018-01-04T18:49:30.000Z,63.8
2018-01-04T18:59:30.000Z,64
2018-01-04T19:09:30.000Z,64.3
2018-01-04T19:19:30.000Z,64.5
2018-01-04T19:29:30.000Z,64.6
2018-01-04T19:39:30.000Z,65.2
2018-01-04T19:49:30.000Z,65
2018-01-04T19:59:30.000Z,65.3
2018-01-04T20:09:30.000Z,65.5
2018-01-04T20:19:30.000Z,65.3
2018-01-04T20:29:30.000Z,65.6
2018-01-04T20:39:30.000Z,65.6
2018-01-04T20:49:30.000Z,65.6
2018-01-04T20:59:30.000Z,65.5
2018-01-04T21:09:30.000Z,65.5
2018-01-04T21:29:30.000Z,65.5
2018-01-04T21:39:33.000Z,64.1
2018-01-04T21:49:31.000Z,56.7
2018-01-04T21:59:30.000Z,48.9
2018-01-04T22:19:30.000Z,47.9
2018-01-04T22:29:31.000Z,44.7
2018-01-04T22:39:30.000Z,44
2018-01-04T22:49:30.000Z,44.2
2018-01-04T22:59:31.000Z,43.4
2018-01-04T23:09:31.000Z,43.1
2018-01-04T23:19:31.000Z,43.1
2018-01-04T23:29:31.000Z,42
2018-01-04T23:39:31.000Z,42.2
2018-01-04T23:49:31.000Z,42
2018-01-04T23:59:32.000Z,41.6
